Time;durP1;ratioP1;P1;durP2;ratioP2;P2;SDS_P1;SDS_P2;PMS_P1;PMS_P2;Temp;Humidity;BMP_temperature;BMP_pressure;BME280_temperature;BME280_humidity;BME280_pressure;Samples;Min_cycle;Max_cycle;Signal;HPM_P1;HPM_P2
2022/09/26 00:01:42;;;;;;;5.70;3.80;;;12.10;99.90;;;;;;5041030;28;20403;-72
2022/09/26 00:04:17;;;;;;;5.60;3.60;;;12.10;99.90;;;;;;5035364;28;20452;-71
2022/09/26 00:09:44;;;;;;;3.70;3.20;;;12.00;99.90;;;;;;4955368;29;20968;-71
2022/09/26 00:12:12;;;;;;;8.27;3.23;;;11.90;99.90;;;;;;4965306;28;20418;-70
2022/09/26 00:14:41;;;;;;;4.60;3.50;;;11.90;99.90;;;;;;4964782;28;20808;-70
2022/09/26 00:17:09;;;;;;;4.60;3.37;;;11.90;99.90;;;;;;4957184;28;20814;-70
2022/09/26 00:19:39;;;;;;;5.27;3.67;;;11.90;99.90;;;;;;4957987;28;20443;-70
2022/09/26 00:22:07;;;;;;;5.00;4.23;;;11.90;99.90;;;;;;4964754;28;20436;-70
2022/09/26 00:24:36;;;;;;;4.43;3.20;;;11.90;99.90;;;;;;4964137;28;20953;-70
2022/09/26 00:27:04;;;;;;;5.37;3.80;;;11.90;99.90;;;;;;4957348;28;20764;-70
2022/09/26 00:29:33;;;;;;;4.73;3.50;;;11.90;99.90;;;;;;4941166;29;20442;-70
2022/09/26 00:32:01;;;;;;;6.67;3.67;;;11.80;99.90;;;;;;4957008;29;20519;-70
2022/09/26 00:34:30;;;;;;;4.27;3.10;;;11.80;99.90;;;;;;4966057;28;20402;-71
2022/09/26 00:37:00;;;;;;;4.30;3.43;;;11.80;99.90;;;;;;4966207;28;20455;-69
2022/09/26 00:39:30;;;;;;;3.10;2.80;;;11.80;99.90;;;;;;4963500;28;20852;-70
2022/09/26 00:42:00;;;;;;;7.10;3.47;;;11.70;99.90;;;;;;4954587;28;20458;-69
2022/09/26 00:44:45;;;;;;;5.97;3.50;;;11.70;99.90;;;;;;4956909;29;20401;-70
2022/09/26 00:47:32;;;;;;;5.80;4.07;;;11.70;99.90;;;;;;4951630;28;20437;-69
2022/09/26 00:50:07;;;;;;;9.53;3.13;;;11.70;99.90;;;;;;4963635;29;20402;-70
2022/09/26 00:52:41;;;;;;;5.50;3.17;;;11.80;99.90;;;;;;4948447;29;20775;-69
2022/09/26 00:55:13;;;;;;;3.90;3.50;;;11.80;99.90;;;;;;4962343;29;20470;-70
2022/09/26 00:57:45;;;;;;;4.97;4.10;;;11.80;99.90;;;;;;4928193;29;20450;-70
2022/09/26 01:00:14;;;;;;;6.93;4.17;;;11.80;99.90;;;;;;4951171;29;20444;-70
2022/09/26 01:02:45;;;;;;;7.03;4.60;;;11.70;99.90;;;;;;4946541;29;20447;-70
2022/09/26 01:05:18;;;;;;;4.77;3.90;;;11.70;99.90;;;;;;4970420;28;20463;-70
2022/09/26 01:07:49;;;;;;;4.60;2.90;;;11.70;99.90;;;;;;4963466;29;20463;-70
2022/09/26 01:10:18;;;;;;;8.17;4.20;;;11.60;99.90;;;;;;4942786;29;20444;-70
2022/09/26 01:12:47;;;;;;;5.30;3.23;;;11.60;99.90;;;;;;4947004;28;20414;-71
2022/09/26 01:15:15;;;;;;;6.00;3.63;;;11.60;99.90;;;;;;4955169;28;20418;-70
2022/09/26 01:17:45;;;;;;;6.43;4.00;;;11.60;99.90;;;;;;4956240;28;20422;-69
2022/09/26 01:20:30;;;;;;;7.30;3.33;;;11.50;99.90;;;;;;4956245;29;20406;-69
2022/09/26 01:23:53;;;;;;;5.23;4.10;;;11.60;99.90;;;;;;4956572;29;20436;-68
2022/09/26 01:26:44;;;;;;;12.63;3.97;;;11.50;99.90;;;;;;4947814;29;20428;-69
2022/09/26 01:29:37;;;;;;;5.23;3.97;;;11.60;99.90;;;;;;4964623;28;20434;-69
2022/09/26 01:35:12;;;;;;;8.87;4.57;;;11.60;99.90;;;;;;4969022;28;20424;-69
2022/09/26 01:37:53;;;;;;;9.80;3.53;;;11.50;99.90;;;;;;4938549;29;20475;-70
2022/09/26 01:40:30;;;;;;;7.20;3.87;;;11.60;99.90;;;;;;4938661;29;20413;-69
2022/09/26 01:43:11;;;;;;;5.73;3.27;;;11.60;99.90;;;;;;4939015;29;20422;-69
2022/09/26 01:45:46;;;;;;;7.67;3.63;;;11.50;99.90;;;;;;4956397;28;20435;-69
2022/09/26 01:48:20;;;;;;;7.37;3.90;;;11.60;99.90;;;;;;4965553;28;20423;-69
2022/09/26 01:50:52;;;;;;;5.00;4.00;;;11.50;99.90;;;;;;4938366;29;20452;-69
2022/09/26 01:53:25;;;;;;;4.83;3.43;;;11.50;99.90;;;;;;4959037;28;20450;-69
2022/09/26 01:56:03;;;;;;;3.83;3.47;;;11.60;99.90;;;;;;4957719;28;20462;-69
2022/09/26 01:58:36;;;;;;;5.40;3.57;;;11.60;99.90;;;;;;4962690;28;20570;-69
2022/09/26 02:01:10;;;;;;;6.03;3.90;;;11.60;99.90;;;;;;4955199;29;20435;-71
2022/09/26 02:03:44;;;;;;;4.07;3.63;;;11.60;99.90;;;;;;4945758;29;20454;-70
2022/09/26 02:06:17;;;;;;;5.53;3.97;;;11.70;99.90;;;;;;4955309;29;20430;-70
2022/09/26 02:08:52;;;;;;;4.37;3.43;;;11.70;99.90;;;;;;4959941;28;20459;-71
2022/09/26 02:11:23;;;;;;;4.90;3.80;;;11.60;99.90;;;;;;4938336;29;20453;-70
2022/09/26 02:14:01;;;;;;;8.83;4.40;;;11.60;99.90;;;;;;4954484;28;20391;-70
2022/09/26 02:16:34;;;;;;;4.77;4.00;;;11.60;99.90;;;;;;4937423;29;20422;-70
2022/09/26 02:19:10;;;;;;;5.33;3.77;;;11.60;99.90;;;;;;4947539;29;20442;-69
2022/09/26 02:21:40;;;;;;;8.57;3.40;;;11.60;99.90;;;;;;4946684;29;20447;-70
2022/09/26 02:24:09;;;;;;;10.20;3.30;;;11.60;99.90;;;;;;4945623;29;20899;-70
2022/09/26 02:26:38;;;;;;;4.23;3.83;;;11.50;99.90;;;;;;4946316;29;20414;-70
2022/09/26 02:29:07;;;;;;;9.23;4.53;;;11.50;99.90;;;;;;4956457;28;20462;-69
2022/09/26 02:31:41;;;;;;;3.70;3.30;;;11.50;99.90;;;;;;4957209;29;20426;-69
2022/09/26 02:34:11;;;;;;;5.33;3.93;;;11.50;99.90;;;;;;4963090;29;20421;-71
2022/09/26 02:36:41;;;;;;;9.40;5.80;;;11.50;99.90;;;;;;4967653;28;20463;-69
2022/09/26 02:39:10;;;;;;;4.03;3.70;;;11.50;99.90;;;;;;4964019;28;20682;-70
2022/09/26 02:41:50;;;;;;;5.97;3.50;;;11.50;99.90;;;;;;4945265;29;20421;-70
2022/09/26 02:44:39;;;;;;;9.87;3.23;;;11.60;99.90;;;;;;4942280;29;20440;-71
2022/09/26 02:47:31;;;;;;;5.00;4.10;;;11.50;99.90;;;;;;4939689;28;20418;-71
2022/09/26 02:50:20;;;;;;;7.07;3.50;;;11.50;99.90;;;;;;4936025;29;20565;-69
2022/09/26 02:53:07;;;;;;;8.93;4.00;;;11.50;99.90;;;;;;4953830;28;20826;-70
2022/09/26 02:55:48;;;;;;;3.20;2.87;;;11.50;99.90;;;;;;4937839;29;20892;-70
2022/09/26 02:58:23;;;;;;;3.97;3.43;;;11.50;99.90;;;;;;4954851;28;20453;-69
2022/09/26 03:01:01;;;;;;;4.73;3.03;;;11.60;99.90;;;;;;4949869;28;20489;-70
2022/09/26 03:03:35;;;;;;;3.30;3.00;;;11.70;99.90;;;;;;4937311;29;20414;-70
2022/09/26 03:06:10;;;;;;;8.87;3.70;;;11.60;99.90;;;;;;4947325;28;20566;-70
2022/09/26 03:08:42;;;;;;;6.70;4.20;;;11.60;99.90;;;;;;4941920;29;20474;-69
2022/09/26 03:11:13;;;;;;;5.40;3.77;;;11.60;99.90;;;;;;4937602;29;20498;-69
2022/09/26 03:13:42;;;;;;;5.70;4.33;;;11.50;99.90;;;;;;4962251;28;20410;-69
2022/09/26 03:16:13;;;;;;;5.27;3.97;;;11.60;99.90;;;;;;4936799;29;20422;-69
2022/09/26 03:18:49;;;;;;;6.50;4.00;;;11.60;99.90;;;;;;4936857;29;20526;-69
2022/09/26 03:21:19;;;;;;;5.20;4.27;;;11.60;99.90;;;;;;4938185;29;20818;-69
2022/09/26 03:23:49;;;;;;;6.90;4.37;;;11.60;99.90;;;;;;4957649;28;20406;-69
2022/09/26 03:26:23;;;;;;;9.50;3.33;;;11.60;99.90;;;;;;4943886;28;20446;-69
2022/09/26 03:28:59;;;;;;;10.37;4.20;;;11.50;99.90;;;;;;4943513;28;20830;-69
2022/09/26 03:31:30;;;;;;;6.37;4.13;;;11.50;99.90;;;;;;4940766;29;20522;-70
2022/09/26 03:34:01;;;;;;;5.97;3.40;;;11.40;99.90;;;;;;4940511;29;20506;-69
2022/09/26 03:36:32;;;;;;;3.63;3.20;;;11.50;99.90;;;;;;4940780;29;20449;-70
2022/09/26 03:39:03;;;;;;;9.30;4.00;;;11.60;99.90;;;;;;4940942;29;20481;-70
2022/09/26 03:41:38;;;;;;;10.57;4.10;;;11.50;99.90;;;;;;4944465;28;20433;-69
2022/09/26 03:44:36;;;;;;;3.90;3.30;;;11.60;99.90;;;;;;4954662;28;20413;-69
2022/09/26 03:47:37;;;;;;;7.70;4.33;;;11.50;99.90;;;;;;4958701;28;20493;-69
2022/09/26 03:50:06;;;;;;;4.90;3.30;;;11.50;99.90;;;;;;4942221;29;20509;-69
2022/09/26 03:52:36;;;;;;;7.73;4.80;;;11.50;99.90;;;;;;4941495;29;20418;-70
2022/09/26 03:55:05;;;;;;;6.50;4.17;;;11.50;99.90;;;;;;4951603;28;20416;-70
2022/09/26 03:57:35;;;;;;;12.70;4.20;;;11.50;99.90;;;;;;4963733;28;20958;-69
2022/09/26 04:00:16;;;;;;;6.10;5.50;;;11.50;99.90;;;;;;4970822;28;20467;-70
2022/09/26 04:02:46;;;;;;;4.40;3.90;;;11.50;99.90;;;;;;4943668;29;20449;-69
2022/09/26 04:05:43;;;;;;;4.93;3.93;;;11.50;99.90;;;;;;4955507;29;20436;-69
2022/09/26 04:08:13;;;;;;;6.43;3.60;;;11.40;99.90;;;;;;4958566;29;20483;-70
2022/09/26 04:10:43;;;;;;;5.90;4.53;;;11.30;99.90;;;;;;4945194;29;20506;-69
2022/09/26 04:13:12;;;;;;;5.43;3.60;;;11.40;99.90;;;;;;4941891;29;20438;-70
2022/09/26 04:16:01;;;;;;;13.90;5.07;;;11.30;99.90;;;;;;4940735;29;20568;-69
2022/09/26 04:18:30;;;;;;;4.50;4.10;;;11.30;99.90;;;;;;4942310;29;20820;-70
2022/09/26 04:21:00;;;;;;;4.97;3.63;;;11.30;99.90;;;;;;4942621;29;20824;-71
2022/09/26 04:23:32;;;;;;;3.40;3.10;;;11.30;99.90;;;;;;4962441;28;20418;-69
2022/09/26 04:26:04;;;;;;;6.17;5.00;;;11.20;99.90;;;;;;4943034;29;20475;-70
2022/09/26 04:28:34;;;;;;;8.20;4.00;;;11.00;99.90;;;;;;4963919;28;20810;-69
2022/09/26 04:31:06;;;;;;;4.50;3.57;;;10.90;99.90;;;;;;4942098;29;20443;-70
2022/09/26 04:33:35;;;;;;;4.67;3.80;;;10.80;99.90;;;;;;4940505;29;20796;-69
2022/09/26 04:36:10;;;;;;;5.10;4.10;;;10.90;99.90;;;;;;4939070;29;21001;-68
2022/09/26 04:38:41;;;;;;;5.13;3.27;;;10.90;99.90;;;;;;4955808;29;20503;-70
2022/09/26 04:41:15;;;;;;;4.20;3.10;;;10.80;99.90;;;;;;4955495;28;20489;-70
2022/09/26 04:43:44;;;;;;;6.93;4.20;;;10.80;99.90;;;;;;4947381;29;20415;-70
2022/09/26 04:46:16;;;;;;;5.80;4.63;;;10.70;99.90;;;;;;4939492;29;20422;-70
2022/09/26 04:48:52;;;;;;;13.53;4.67;;;10.60;99.90;;;;;;4939414;29;20460;-70
2022/09/26 04:51:23;;;;;;;5.83;4.17;;;10.60;99.90;;;;;;4939702;29;20919;-69
2022/09/26 04:53:53;;;;;;;5.43;3.70;;;10.60;99.90;;;;;;4939561;29;20602;-70
2022/09/26 04:56:28;;;;;;;5.03;3.00;;;10.60;99.90;;;;;;4949584;28;20505;-70
2022/09/26 04:58:58;;;;;;;6.10;4.27;;;10.50;99.90;;;;;;4939418;29;20444;-69
2022/09/26 05:01:34;;;;;;;14.87;6.17;;;10.50;99.90;;;;;;4939474;29;21003;-70
2022/09/26 05:04:08;;;;;;;10.90;4.63;;;10.30;99.90;;;;;;4939379;29;20839;-69
2022/09/26 05:06:38;;;;;;;7.40;4.50;;;10.20;99.90;;;;;;4939674;29;20454;-69
2022/09/26 05:09:14;;;;;;;5.40;4.90;;;10.30;99.90;;;;;;4957280;28;20503;-70
2022/09/26 05:11:57;;;;;;;6.40;5.20;;;10.30;99.90;;;;;;4958042;28;20518;-71
2022/09/26 05:14:27;;;;;;;10.07;5.20;;;10.30;99.90;;;;;;4939229;29;20418;-69
2022/09/26 05:16:55;;;;;;;7.00;5.30;;;10.30;99.90;;;;;;4938784;29;20472;-69
2022/09/26 05:19:25;;;;;;;5.83;5.00;;;10.30;99.90;;;;;;4938703;29;20446;-70
2022/09/26 05:22:14;;;;;;;6.80;4.80;;;10.30;99.90;;;;;;4928254;29;20431;-70
2022/09/26 05:27:31;;;;;;;7.50;5.67;;;10.40;99.90;;;;;;4956124;28;20430;-69
2022/09/26 05:30:00;;;;;;;7.10;4.43;;;10.40;99.90;;;;;;4955443;28;20411;-70
2022/09/26 05:32:29;;;;;;;15.23;6.63;;;10.40;99.90;;;;;;4940503;29;20435;-70
2022/09/26 05:34:58;;;;;;;11.87;5.40;;;10.40;99.90;;;;;;4961495;28;20445;-70
2022/09/26 05:37:29;;;;;;;12.63;9.00;;;10.50;99.90;;;;;;4938562;29;20442;-69
2022/09/26 05:42:50;;;;;;;9.70;5.10;;;10.70;99.90;;;;;;4949599;28;20872;-70
2022/09/26 05:45:19;;;;;;;5.97;5.37;;;10.80;99.90;;;;;;4949951;28;20410;-70
2022/09/26 05:47:48;;;;;;;6.83;4.67;;;10.90;99.90;;;;;;4942648;29;20515;-69
2022/09/26 05:50:19;;;;;;;6.60;5.87;;;11.00;99.90;;;;;;4938925;29;20938;-68
2022/09/26 05:52:47;;;;;;;13.37;5.40;;;11.00;99.90;;;;;;4968510;28;20417;-70
2022/09/26 05:55:24;;;;;;;6.47;4.70;;;11.20;99.90;;;;;;4940517;28;20948;-70
2022/09/26 05:58:32;;;;;;;12.70;7.13;;;11.20;99.90;;;;;;4917021;29;20427;-71
2022/09/26 06:01:17;;;;;;;5.27;4.77;;;11.20;99.90;;;;;;4956278;29;20470;-71
2022/09/26 06:03:50;;;;;;;12.60;4.20;;;11.40;99.90;;;;;;4938965;29;20499;-70
2022/09/26 06:06:25;;;;;;;7.53;5.00;;;11.50;99.90;;;;;;4965961;28;20438;-70
2022/09/26 06:09:02;;;;;;;6.37;3.73;;;11.50;99.90;;;;;;4970335;23;20456;-66
2022/09/26 06:12:02;;;;;;;5.93;4.83;;;11.60;99.90;;;;;;4923056;28;20436;-67
2022/09/26 06:14:30;;;;;;;5.97;3.93;;;11.60;99.90;;;;;;4969154;28;20442;-66
2022/09/26 06:16:59;;;;;;;7.90;4.93;;;11.70;99.90;;;;;;4951688;28;20451;-67
2022/09/26 06:19:28;;;;;;;9.17;5.57;;;11.80;99.90;;;;;;4957998;28;20441;-66
2022/09/26 06:21:56;;;;;;;6.10;4.27;;;12.00;99.90;;;;;;4950738;28;20446;-66
2022/09/26 06:24:25;;;;;;;5.43;4.60;;;11.90;99.90;;;;;;4960213;28;20446;-68
2022/09/26 06:26:58;;;;;;;9.10;3.60;;;12.10;99.90;;;;;;4961065;28;20943;-67
2022/09/26 06:29:28;;;;;;;4.47;4.00;;;12.10;99.90;;;;;;4955411;28;20406;-67
2022/09/26 06:31:58;;;;;;;12.90;3.77;;;12.20;99.90;;;;;;4949690;28;20477;-68
2022/09/26 06:34:46;;;;;;;8.07;4.13;;;12.40;99.90;;;;;;4955373;28;20458;-68
2022/09/26 06:37:48;;;;;;;6.23;4.40;;;12.50;99.90;;;;;;4957944;28;20454;-67
2022/09/26 06:40:16;;;;;;;8.30;4.30;;;12.70;99.90;;;;;;4961831;28;20440;-68
2022/09/26 06:42:45;;;;;;;7.13;4.60;;;12.80;99.90;;;;;;4965930;28;20878;-67
2022/09/26 06:45:44;;;;;;;4.90;3.93;;;12.90;99.90;;;;;;4939358;28;20485;-68
2022/09/26 06:48:45;;;;;;;6.93;3.83;;;12.90;99.90;;;;;;4940494;28;20402;-67
2022/09/26 06:51:27;;;;;;;8.50;3.87;;;13.00;99.90;;;;;;4968501;28;20778;-68
2022/09/26 06:53:56;;;;;;;4.67;3.43;;;13.10;99.90;;;;;;4958475;28;20465;-68
2022/09/26 06:56:27;;;;;;;4.87;4.43;;;13.30;99.90;;;;;;4964817;28;20461;-67
2022/09/26 06:58:56;;;;;;;5.13;3.97;;;13.40;99.90;;;;;;4962264;28;20935;-67
2022/09/26 07:01:33;;;;;;;3.67;3.30;;;13.40;99.90;;;;;;4957133;28;20478;-67
2022/09/26 07:04:26;;;;;;;3.20;2.90;;;13.50;99.90;;;;;;4965246;28;20505;-67
2022/09/26 07:07:16;;;;;;;13.63;6.00;;;13.50;99.90;;;;;;4953118;28;20464;-67
2022/09/26 07:09:45;;;;;;;13.27;4.10;;;13.60;99.90;;;;;;4960393;28;20822;-67
2022/09/26 07:12:42;;;;;;;13.90;4.20;;;13.50;99.90;;;;;;4960747;28;20528;-67
2022/09/26 07:15:14;;;;;;;14.93;4.63;;;13.60;99.90;;;;;;4953879;28;20840;-67
2022/09/26 07:17:47;;;;;;;8.87;5.67;;;13.50;99.90;;;;;;4973073;28;20650;-67
2022/09/26 07:20:30;;;;;;;6.50;4.67;;;13.70;99.90;;;;;;4962559;28;20786;-68
2022/09/26 07:23:11;;;;;;;8.63;4.37;;;13.80;99.90;;;;;;4968456;28;20896;-68
2022/09/26 07:25:46;;;;;;;5.67;5.00;;;13.80;99.90;;;;;;4964817;28;20445;-68
2022/09/26 07:28:15;;;;;;;7.83;5.70;;;13.90;99.90;;;;;;4969450;28;20454;-67
2022/09/26 07:30:47;;;;;;;8.00;6.23;;;14.00;99.90;;;;;;4954079;28;20501;-67
2022/09/26 07:33:26;;;;;;;9.03;6.77;;;14.20;99.90;;;;;;4954519;28;20409;-67
2022/09/26 07:35:56;;;;;;;8.73;5.80;;;14.30;99.90;;;;;;4959820;28;20533;-68
2022/09/26 07:38:31;;;;;;;9.33;5.50;;;14.40;99.90;;;;;;4957534;28;20435;-68
2022/09/26 07:41:00;;;;;;;5.73;5.23;;;14.50;99.90;;;;;;4955897;28;20512;-69
2022/09/26 07:43:30;;;;;;;4.50;4.10;;;14.60;99.90;;;;;;4965087;28;20436;-67
2022/09/26 07:51:55;;;;;;;14.63;4.53;;;14.80;99.90;;;;;;4964070;28;20730;-68
2022/09/26 07:54:30;;;;;;;7.17;4.20;;;14.80;99.90;;;;;;4961957;28;20504;-67
2022/09/26 07:57:18;;;;;;;9.60;3.40;;;15.00;99.90;;;;;;4960753;28;20444;-68
2022/09/26 08:00:20;;;;;;;5.33;3.17;;;15.10;99.90;;;;;;4961307;28;20953;-68
2022/09/26 08:03:03;;;;;;;7.50;3.60;;;15.10;97.50;;;;;;4964584;28;20446;-68
2022/09/26 08:05:37;;;;;;;10.70;3.00;;;15.00;99.90;;;;;;4960273;28;20477;-67
2022/09/26 08:08:06;;;;;;;6.57;3.33;;;15.00;97.10;;;;;;4959583;28;20436;-67
2022/09/26 08:11:14;;;;;;;2.90;2.60;;;15.00;96.60;;;;;;4924277;29;20416;-67
2022/09/26 08:13:44;;;;;;;5.90;3.30;;;15.00;95.20;;;;;;4954027;28;20414;-68
2022/09/26 08:16:29;;;;;;;5.13;2.40;;;15.10;92.10;;;;;;4960882;28;20561;-66
2022/09/26 08:19:02;;;;;;;5.43;2.57;;;15.10;91.20;;;;;;4964918;28;21147;-67
2022/09/26 08:21:32;;;;;;;2.80;2.50;;;15.00;92.20;;;;;;4965098;28;20520;-66
2022/09/26 08:24:01;;;;;;;5.43;2.80;;;15.10;91.40;;;;;;4963386;28;20414;-67
2022/09/26 08:26:30;;;;;;;2.70;1.70;;;15.20;90.20;;;;;;4961876;28;20872;-68
2022/09/26 08:29:11;;;;;;;8.43;3.03;;;15.20;79.40;;;;;;4952448;28;20493;-68
2022/09/26 08:31:40;;;;;;;6.10;2.17;;;15.30;80.80;;;;;;4952573;28;20537;-68
2022/09/26 08:34:09;;;;;;;5.17;2.23;;;15.50;76.70;;;;;;4956250;28;20416;-68
2022/09/26 08:36:40;;;;;;;10.83;2.30;;;15.50;77.80;;;;;;4958514;28;20843;-69
2022/09/26 08:39:40;;;;;;;2.23;1.93;;;15.70;80.70;;;;;;4959816;28;20462;-68
2022/09/26 08:42:47;;;;;;;2.80;1.70;;;15.80;71.60;;;;;;4956218;28;20472;-66
2022/09/26 08:49:05;;;;;;;3.30;2.10;;;15.90;63.80;;;;;;4951912;28;20841;-67
2022/09/26 08:51:38;;;;;;;3.43;2.23;;;15.90;55.70;;;;;;4954152;28;20426;-68
2022/09/26 08:54:16;;;;;;;2.07;1.77;;;16.00;53.80;;;;;;4963525;28;20593;-67
2022/09/26 08:56:49;;;;;;;6.40;1.97;;;16.10;50.70;;;;;;4960210;28;20443;-67
2022/09/26 08:59:25;;;;;;;3.07;2.17;;;16.40;47.60;;;;;;4951255;28;20444;-67
2022/09/26 09:01:59;;;;;;;2.00;1.70;;;16.40;41.70;;;;;;4953973;28;20477;-66
2022/09/26 09:04:44;;;;;;;2.63;1.70;;;16.40;36.40;;;;;;4971827;28;20449;-66
2022/09/26 09:07:22;;;;;;;2.43;1.63;;;16.40;34.50;;;;;;4966718;28;20460;-67
2022/09/26 09:09:56;;;;;;;3.30;2.23;;;16.40;34.90;;;;;;4959605;28;20436;-69
2022/09/26 09:12:59;;;;;;;3.43;1.60;;;16.50;37.00;;;;;;4959671;28;20435;-67
2022/09/26 09:16:14;;;;;;;2.43;1.70;;;16.30;34.70;;;;;;4960008;28;20455;-68
2022/09/26 09:19:14;;;;;;;3.27;2.50;;;16.40;30.40;;;;;;4961606;28;20439;-68
2022/09/26 09:22:45;;;;;;;4.40;1.93;;;16.70;30.70;;;;;;4947083;28;20843;-67
2022/09/26 09:25:23;;;;;;;5.63;1.83;;;16.60;27.60;;;;;;4959287;28;21025;-67
2022/09/26 09:28:11;;;;;;;1.47;0.97;;;16.60;28.30;;;;;;4955885;28;20526;-68
2022/09/26 09:30:43;;;;;;;2.80;1.73;;;16.50;28.10;;;;;;4963826;28;20413;-69
2022/09/26 09:33:37;;;;;;;1.97;1.37;;;16.50;27.60;;;;;;4963965;28;20418;-67
2022/09/26 09:36:30;;;;;;;1.97;0.90;;;16.30;27.10;;;;;;4958649;28;20457;-67
2022/09/26 09:39:19;;;;;;;5.37;1.17;;;16.20;25.90;;;;;;4956520;28;20417;-68
2022/09/26 09:42:21;;;;;;;2.73;2.17;;;16.20;27.80;;;;;;4972033;28;20438;-67
2022/09/26 09:44:55;;;;;;;3.40;1.37;;;16.30;28.30;;;;;;4953331;28;20958;-66
2022/09/26 09:47:28;;;;;;;4.10;2.10;;;16.20;27.80;;;;;;4963657;28;20509;-67
2022/09/26 09:49:59;;;;;;;4.10;2.30;;;16.30;28.00;;;;;;4957719;28;20458;-67
2022/09/26 09:52:43;;;;;;;3.33;2.10;;;16.30;27.10;;;;;;4969438;28;20905;-68
2022/09/26 09:55:21;;;;;;;4.73;2.63;;;16.20;26.40;;;;;;4960625;28;20994;-67
2022/09/26 09:58:11;;;;;;;6.20;2.97;;;16.10;27.70;;;;;;4958890;28;20486;-69
2022/09/26 10:00:50;;;;;;;1.93;1.43;;;16.00;50.20;;;;;;4950211;28;20447;-68
2022/09/26 10:03:31;;;;;;;4.70;1.63;;;16.20;46.90;;;;;;4950990;28;20475;-67
2022/09/26 10:06:02;;;;;;;1.93;1.20;;;16.50;45.70;;;;;;4958739;28;20463;-67
2022/09/26 10:08:40;;;;;;;5.43;1.67;;;16.80;41.50;;;;;;4958936;28;20493;-68
2022/09/26 10:11:31;;;;;;;5.10;1.97;;;17.00;39.80;;;;;;4957705;28;20449;-67
2022/09/26 10:14:31;;;;;;;1.97;1.30;;;17.40;35.20;;;;;;4953850;28;20438;-67
2022/09/26 10:17:19;;;;;;;3.00;1.50;;;17.20;20.50;;;;;;4965068;28;20839;-67
2022/09/26 10:20:00;;;;;;;3.37;1.17;;;17.00;18.50;;;;;;4960133;28;20444;-68
2022/09/26 10:22:37;;;;;;;8.80;1.67;;;17.00;20.30;;;;;;4966653;28;20522;-67
2022/09/26 10:25:18;;;;;;;6.80;1.20;;;17.00;20.10;;;;;;4952093;28;20574;-67
2022/09/26 10:27:54;;;;;;;2.23;1.77;;;16.90;18.10;;;;;;4965628;28;20974;-66
2022/09/26 10:30:28;;;;;;;4.17;1.83;;;;;;;;;;4955302;28;20470;-66
2022/09/26 10:33:04;;;;;;;3.13;1.53;;;16.70;18.50;;;;;;4954800;28;20790;-66
2022/09/26 10:35:44;;;;;;;2.10;1.43;;;16.50;20.00;;;;;;4958020;28;20515;-68
2022/09/26 10:38:21;;;;;;;1.80;1.40;;;16.70;21.00;;;;;;4958098;28;20451;-68
2022/09/26 10:41:02;;;;;;;3.27;1.43;;;16.70;21.20;;;;;;4981304;28;20454;-68
2022/09/26 10:43:36;;;;;;;3.87;1.77;;;16.90;19.20;;;;;;4970090;28;20844;-68
2022/09/26 10:46:17;;;;;;;4.83;1.53;;;17.10;17.90;;;;;;4966441;28;20459;-68
2022/09/26 10:49:06;;;;;;;3.83;1.63;;;17.30;18.70;;;;;;4964619;28;20869;-67
2022/09/26 10:52:03;;;;;;;1.60;1.50;;;17.30;17.50;;;;;;4963968;28;21080;-68
2022/09/26 10:54:42;;;;;;;7.63;1.80;;;17.20;16.20;;;;;;4966466;28;20533;-67
2022/09/26 10:57:21;;;;;;;1.70;1.43;;;17.10;15.90;;;;;;4960655;28;20836;-67
2022/09/26 10:59:53;;;;;;;4.27;2.00;;;16.90;17.00;;;;;;4957132;28;20499;-67
2022/09/26 11:02:25;;;;;;;6.30;1.40;;;16.70;18.30;;;;;;4958033;28;20425;-66
2022/09/26 11:07:48;;;;;;;3.43;1.73;;;16.60;17.90;;;;;;4958489;28;20531;-66
2022/09/26 11:10:40;;;;;;;3.10;1.50;;;16.60;18.20;;;;;;4955897;28;20450;-67
2022/09/26 11:13:21;;;;;;;3.27;1.63;;;16.70;18.70;;;;;;4953085;28;20454;-67
2022/09/26 11:16:01;;;;;;;3.67;1.90;;;16.70;17.10;;;;;;4960407;28;20755;-68
2022/09/26 11:18:42;;;;;;;3.23;1.70;;;16.90;16.20;;;;;;4965078;28;20468;-68
2022/09/26 11:21:18;;;;;;;2.27;1.03;;;16.70;14.80;;;;;;4958929;28;20958;-68
2022/09/26 11:24:10;;;;;;;3.70;1.30;;;16.60;15.20;;;;;;4958264;28;20477;-68
2022/09/26 11:26:50;;;;;;;3.43;1.20;;;16.70;14.70;;;;;;4960520;28;20479;-68
2022/09/26 11:29:33;;;;;;;9.40;1.73;;;17.00;13.30;;;;;;4955409;28;20845;-67
2022/09/26 11:32:22;;;;;;;3.63;1.30;;;17.20;13.30;;;;;;4956113;28;20447;-67
2022/09/26 11:35:03;;;;;;;2.40;1.50;;;17.30;13.00;;;;;;4956244;28;20460;-67
2022/09/26 11:37:49;;;;;;;3.43;1.57;;;17.40;11.80;;;;;;4962785;28;20458;-67
2022/09/26 11:40:38;;;;;;;3.57;1.50;;;17.60;12.20;;;;;;4965862;28;20451;-67
2022/09/26 11:43:23;;;;;;;6.30;1.67;;;17.80;12.00;;;;;;4960638;28;20455;-66
2022/09/26 11:46:15;;;;;;;1.80;1.10;;;18.20;11.00;;;;;;4960888;28;20819;-67
2022/09/26 11:49:17;;;;;;;3.20;1.20;;;18.20;10.50;;;;;;4988485;28;20449;-68
2022/09/26 11:52:21;;;;;;;3.93;1.50;;;18.10;10.10;;;;;;4960567;28;20462;-67
2022/09/26 11:55:07;;;;;;;3.87;1.70;;;18.30;9.60;;;;;;4972341;23;20596;-69
2022/09/26 11:57:45;;;;;;;2.90;1.73;;;18.50;9.70;;;;;;4966069;29;20432;-70
2022/09/26 12:00:23;;;;;;;4.90;1.70;;;18.30;8.80;;;;;;4960302;28;20806;-69
2022/09/26 12:03:31;;;;;;;2.30;1.40;;;18.20;8.60;;;;;;4967474;28;20427;-68
2022/09/26 12:06:11;;;;;;;4.03;1.40;;;18.20;8.30;;;;;;4966054;28;20498;-69
2022/09/26 12:08:59;;;;;;;2.90;1.83;;;18.00;9.40;;;;;;5001634;23;21018;-70
2022/09/26 12:11:35;;;;;;;1.70;1.37;;;18.20;9.30;;;;;;4993606;28;20441;-71
2022/09/26 12:14:14;;;;;;;2.90;1.57;;;18.30;7.90;;;;;;4993941;28;20912;-70
2022/09/26 12:16:51;;;;;;;1.83;1.20;;;18.50;8.10;;;;;;4993436;28;20457;-71
2022/09/26 12:19:26;;;;;;;3.10;1.20;;;18.70;6.40;;;;;;4993620;28;20406;-71
2022/09/26 12:24:59;;;;;;;4.10;1.30;;;18.90;6.30;;;;;;4993385;28;20448;-71
2022/09/26 12:27:36;;;;;;;4.13;1.90;;;18.90;5.30;;;;;;4993915;28;20381;-69
2022/09/26 12:30:09;;;;;;;7.13;1.97;;;18.50;5.30;;;;;;4993959;28;20600;-70
2022/09/26 12:32:58;;;;;;;4.40;2.10;;;18.30;5.90;;;;;;5012887;28;20409;-70
2022/09/26 12:35:44;;;;;;;4.93;1.33;;;18.30;6.80;;;;;;5005987;28;20525;-69
2022/09/26 12:38:38;;;;;;;2.97;1.67;;;18.20;6.70;;;;;;4973459;28;20411;-69
2022/09/26 12:41:26;;;;;;;7.67;2.10;;;18.10;5.80;;;;;;4990735;28;20438;-71
2022/09/26 12:44:21;;;;;;;2.47;1.67;;;18.30;6.10;;;;;;4993434;28;20940;-71
2022/09/26 12:47:27;;;;;;;6.90;2.77;;;18.10;5.80;;;;;;4993017;28;20903;-70
2022/09/26 12:50:15;;;;;;;2.90;1.63;;;18.10;6.40;;;;;;4975473;28;20848;-71
2022/09/26 12:53:20;;;;;;;3.80;1.87;;;17.90;6.80;;;;;;4992909;28;20414;-70
2022/09/26 12:55:58;;;;;;;1.63;1.30;;;17.70;6.80;;;;;;4973361;28;20501;-72
2022/09/26 12:58:41;;;;;;;2.10;1.60;;;17.60;6.90;;;;;;4972744;28;20414;-70
2022/09/26 13:01:26;;;;;;;3.20;1.27;;;17.40;7.10;;;;;;4973924;28;20437;-70
2022/09/26 13:04:09;;;;;;;3.00;1.90;;;17.30;7.50;;;;;;4973404;28;20478;-71
2022/09/26 13:06:57;;;;;;;5.17;1.83;;;17.30;9.30;;;;;;4973399;28;20473;-70
2022/09/26 13:10:08;;;;;;;7.17;2.00;;;17.30;8.10;;;;;;4989747;28;21028;-70
2022/09/26 13:12:56;;;;;;;3.13;1.70;;;17.50;8.90;;;;;;4975345;28;20417;-72
2022/09/26 13:15:31;;;;;;;2.80;1.87;;;17.40;7.30;;;;;;4992543;28;20970;-72
2022/09/26 13:18:05;;;;;;;2.10;1.30;;;17.40;7.30;;;;;;4992439;28;20761;-71
2022/09/26 13:20:42;;;;;;;1.80;1.30;;;17.40;6.30;;;;;;4975531;28;20461;-70
2022/09/26 13:23:17;;;;;;;3.93;1.60;;;17.40;6.40;;;;;;4994355;28;20496;-72
2022/09/26 13:25:52;;;;;;;4.00;1.43;;;17.50;6.30;;;;;;4994723;28;20460;-71
2022/09/26 13:28:25;;;;;;;2.17;1.20;;;17.50;6.30;;;;;;4994120;28;20417;-71
2022/09/26 13:31:00;;;;;;;8.47;2.20;;;17.60;6.10;;;;;;4982347;28;20438;-71
2022/09/26 13:33:38;;;;;;;4.33;3.07;;;17.70;5.90;;;;;;5001235;28;20412;-73
2022/09/26 13:36:10;;;;;;;4.53;2.20;;;17.80;5.90;;;;;;4972915;28;20856;-71
2022/09/26 13:38:51;;;;;;;4.07;1.43;;;17.80;5.60;;;;;;4972539;28;20473;-71
2022/09/26 13:41:39;;;;;;;2.93;1.60;;;17.90;6.10;;;;;;4972530;28;20897;-70
2022/09/26 13:44:30;;;;;;;4.57;1.87;;;17.90;5.40;;;;;;4972582;28;20889;-70
2022/09/26 13:47:13;;;;;;;6.83;1.80;;;18.10;4.60;;;;;;4972543;28;20423;-69
2022/09/26 13:49:52;;;;;;;4.00;1.90;;;18.30;5.60;;;;;;4972556;28;20505;-71
2022/09/26 13:52:39;;;;;;;1.77;1.27;;;18.10;3.80;;;;;;4972714;28;20443;-70
2022/09/26 13:55:15;;;;;;;4.03;1.50;;;17.90;4.60;;;;;;4955158;28;20450;-72
2022/09/26 13:58:03;;;;;;;1.83;1.10;;;17.90;4.40;;;;;;4984612;28;20791;-70
2022/09/26 14:00:53;;;;;;;2.13;1.20;;;17.80;4.80;;;;;;4999090;28;20449;-71
2022/09/26 14:03:43;;;;;;;5.13;1.10;;;17.70;5.20;;;;;;4972304;28;20466;-71
2022/09/26 14:06:30;;;;;;;14.93;1.63;;;17.60;6.10;;;;;;4972137;28;20466;-71
2022/09/26 14:09:23;;;;;;;2.00;1.37;;;17.60;6.80;;;;;;4972026;28;20497;-70
2022/09/26 14:12:08;;;;;;;5.27;2.10;;;17.60;7.40;;;;;;4972204;28;20761;-71
2022/09/26 14:14:48;;;;;;;3.23;2.07;;;17.50;6.00;;;;;;4971075;28;21026;-69